createdAt,value
2022-09-20T00:01:32.402Z,62.35
2022-09-20T00:04:02.253Z,62.13
2022-09-20T00:06:31.587Z,62.19
2022-09-20T00:08:59.701Z,62.26
2022-09-20T00:11:30.771Z,62.40
2022-09-20T00:14:01.450Z,62.36
2022-09-20T00:16:36.066Z,62.56
2022-09-20T00:19:05.302Z,62.49
2022-09-20T00:21:34.647Z,62.50
2022-09-20T00:24:02.213Z,62.29
2022-09-20T00:26:29.711Z,62.77
2022-09-20T00:28:58.436Z,62.23
2022-09-20T00:31:25.393Z,62.74
2022-09-20T00:34:16.993Z,62.53
2022-09-20T00:36:44.954Z,62.53
2022-09-20T00:39:15.011Z,62.27
2022-09-20T00:41:42.445Z,62.62
2022-09-20T00:44:44.082Z,62.76
2022-09-20T00:47:33.019Z,62.74
2022-09-20T00:50:39.614Z,62.82
2022-09-20T00:53:13.808Z,62.65
2022-09-20T00:55:52.616Z,62.77
2022-09-20T00:58:20.767Z,62.77
2022-09-20T01:00:50.251Z,62.87
2022-09-20T01:03:22.776Z,63.21
2022-09-20T01:05:52.066Z,63.15
2022-09-20T01:08:20.392Z,62.95
2022-09-20T01:10:47.434Z,63.26
2022-09-20T01:13:14.725Z,63.08
2022-09-20T01:15:44.584Z,63.40
2022-09-20T01:18:11.569Z,63.46
2022-09-20T01:20:43.868Z,63.41
2022-09-20T01:23:49.303Z,63.75
2022-09-20T01:26:40.396Z,63.60
2022-09-20T01:29:38.666Z,63.64
2022-09-20T01:32:14.158Z,63.77
2022-09-20T01:34:49.288Z,63.66
2022-09-20T01:37:27.235Z,63.65
2022-09-20T01:40:27.920Z,64.19
2022-09-20T01:43:26.401Z,64.10
2022-09-20T01:45:53.588Z,64.45
2022-09-20T01:48:35.719Z,64.36
2022-09-20T01:51:28.911Z,64.34
2022-09-20T01:54:30.461Z,64.57
2022-09-20T01:57:27.566Z,64.24
2022-09-20T02:00:21.751Z,64.23
2022-09-20T02:03:25.259Z,64.29
2022-09-20T02:06:26.379Z,64.27
2022-09-20T02:09:34.011Z,64.43
2022-09-20T02:12:52.203Z,64.55
2022-09-20T02:16:06.447Z,64.42
2022-09-20T02:19:20.745Z,64.25
2022-09-20T02:22:17.292Z,64.49
2022-09-20T02:25:12.394Z,64.29
2022-09-20T02:28:13.134Z,64.08
2022-09-20T02:31:08.559Z,64.01
2022-09-20T02:34:09.231Z,63.67
2022-09-20T02:36:41.124Z,63.97
2022-09-20T02:39:20.365Z,64.09
2022-09-20T02:42:01.494Z,63.67
2022-09-20T02:45:10.568Z,64.03
2022-09-20T02:47:43.492Z,64.17
2022-09-20T02:50:48.255Z,63.94
2022-09-20T02:53:43.618Z,64.06
2022-09-20T02:56:27.455Z,64.09
2022-09-20T02:59:24.710Z,64.11
2022-09-20T03:02:26.080Z,64.10
2022-09-20T03:05:17.351Z,63.96
2022-09-20T03:08:24.226Z,64.30
2022-09-20T03:11:21.876Z,64.46
2022-09-20T03:14:16.058Z,64.41
2022-09-20T03:17:06.820Z,65.00
2022-09-20T03:20:17.553Z,64.48
2022-09-20T03:23:41.051Z,64.58
2022-09-20T03:26:21.250Z,64.68
2022-09-20T03:29:09.463Z,64.67
2022-09-20T03:32:01.609Z,64.60
2022-09-20T03:34:46.737Z,64.59
2022-09-20T03:37:43.638Z,64.71
2022-09-20T03:40:46.898Z,64.65
2022-09-20T03:43:57.241Z,64.66
2022-09-20T03:46:45.308Z,65.04
2022-09-20T03:49:51.057Z,65.21
2022-09-20T03:52:45.420Z,65.28
2022-09-20T03:55:41.979Z,65.44
2022-09-20T03:58:36.402Z,65.30
2022-09-20T04:01:35.437Z,65.43
2022-09-20T04:04:20.093Z,65.22
2022-09-20T04:07:21.667Z,65.08
2022-09-20T04:10:15.951Z,64.95
2022-09-20T04:13:17.840Z,65.17
2022-09-20T04:16:06.589Z,64.94
2022-09-20T04:19:05.578Z,64.84
2022-09-20T04:21:58.986Z,64.92
2022-09-20T04:24:28.873Z,64.72
2022-09-20T04:27:29.908Z,65.13
2022-09-20T04:30:14.982Z,65.07
2022-09-20T04:33:01.164Z,64.91
2022-09-20T04:36:09.067Z,65.05
2022-09-20T04:38:36.539Z,65.15
2022-09-20T04:41:51.628Z,64.67
2022-09-20T04:44:52.655Z,64.80
2022-09-20T04:48:17.272Z,65.03
2022-09-20T04:51:29.294Z,64.85
2022-09-20T04:54:38.732Z,65.00
2022-09-20T04:58:01.488Z,64.68
2022-09-20T05:01:06.936Z,64.79
2022-09-20T05:04:36.823Z,64.75
2022-09-20T05:07:25.965Z,64.85
2022-09-20T05:10:34.025Z,64.71
2022-09-20T05:13:28.844Z,64.84
2022-09-20T05:16:08.839Z,64.70
2022-09-20T05:19:19.728Z,65.07
2022-09-20T05:22:17.408Z,64.61
2022-09-20T05:25:09.320Z,64.74
2022-09-20T05:28:15.277Z,64.97
2022-09-20T05:30:50.150Z,65.10
2022-09-20T05:33:53.199Z,64.86
2022-09-20T05:36:47.253Z,65.37
2022-09-20T05:39:40.752Z,65.04
2022-09-20T05:42:24.044Z,65.32
2022-09-20T05:45:23.708Z,65.58
2022-09-20T05:48:18.285Z,65.46
2022-09-20T05:51:20.580Z,65.28
2022-09-20T05:54:22.603Z,65.55
2022-09-20T05:57:06.632Z,65.97
2022-09-20T06:00:10.423Z,65.92
2022-09-20T06:03:18.580Z,66.08
2022-09-20T06:06:22.975Z,66.15
2022-09-20T06:09:18.996Z,66.16
2022-09-20T06:12:17.016Z,66.27
2022-09-20T06:15:15.684Z,66.18
2022-09-20T06:18:38.388Z,66.22
2022-09-20T06:21:22.997Z,66.04
2022-09-20T06:23:50.044Z,65.94
2022-09-20T06:26:23.607Z,66.14
2022-09-20T06:29:01.676Z,65.99
2022-09-20T06:31:28.681Z,65.96
2022-09-20T06:34:04.736Z,66.48
2022-09-20T06:36:53.852Z,66.45
2022-09-20T06:40:03.062Z,66.69
2022-09-20T06:42:30.199Z,67.13
2022-09-20T06:44:57.079Z,67.35
2022-09-20T06:47:23.965Z,67.18
2022-09-20T06:49:50.831Z,67.46
2022-09-20T06:52:20.601Z,67.72
2022-09-20T06:54:51.809Z,67.82
2022-09-20T06:57:24.994Z,67.99
2022-09-20T06:59:52.338Z,68.13
2022-09-20T07:02:19.252Z,68.15
2022-09-20T07:04:46.116Z,68.08
2022-09-20T07:07:18.963Z,68.11
2022-09-20T07:09:45.910Z,68.06
2022-09-20T07:12:12.809Z,67.72
2022-09-20T07:14:39.893Z,67.47
2022-09-20T07:17:07.526Z,67.63
2022-09-20T07:19:35.126Z,67.67
2022-09-20T07:22:02.089Z,67.72
2022-09-20T07:24:32.244Z,67.53
2022-09-20T07:27:04.243Z,66.92
2022-09-20T07:29:31.559Z,66.58
2022-09-20T07:31:58.725Z,65.68
2022-09-20T07:34:27.187Z,65.13
2022-09-20T07:36:54.095Z,64.10
2022-09-20T07:39:20.957Z,63.95
2022-09-20T07:41:51.142Z,63.59
2022-09-20T07:44:22.024Z,63.08
2022-09-20T07:46:51.394Z,63.18
2022-09-20T07:49:18.362Z,62.76
2022-09-20T07:51:45.742Z,63.00
2022-09-20T07:54:12.642Z,63.16
2022-09-20T07:56:39.999Z,62.92
2022-09-20T07:59:06.888Z,62.91
2022-09-20T08:01:33.868Z,62.78
2022-09-20T08:04:01.034Z,62.97
2022-09-20T08:06:27.949Z,62.96
2022-09-20T08:08:55.942Z,62.07
2022-09-20T08:11:27.784Z,62.43
2022-09-20T08:14:05.866Z,62.39
2022-09-20T08:16:43.194Z,62.16
2022-09-20T08:19:21.625Z,61.94
2022-09-20T08:21:50.770Z,61.48
2022-09-20T08:24:17.886Z,61.08
2022-09-20T08:26:45.157Z,61.49
2022-09-20T08:29:13.363Z,61.15
2022-09-20T08:31:42.299Z,60.92
2022-09-20T08:34:12.456Z,60.75
2022-09-20T08:36:45.401Z,60.16
2022-09-20T08:42:22.146Z,60.60
2022-09-20T08:44:59.168Z,60.35
2022-09-20T08:47:31.386Z,59.05
2022-09-20T08:49:59.396Z,59.11
2022-09-20T08:52:36.225Z,59.18
2022-09-20T08:55:18.034Z,58.93
2022-09-20T08:57:50.224Z,58.89
2022-09-20T09:00:24.429Z,58.51
2022-09-20T09:02:57.226Z,58.33
2022-09-20T09:05:46.998Z,57.32
2022-09-20T09:08:30.996Z,57.42
2022-09-20T09:11:04.684Z,56.61
2022-09-20T09:13:53.875Z,55.85
2022-09-20T09:16:34.478Z,56.20
2022-09-20T09:19:33.218Z,56.27
2022-09-20T09:22:03.038Z,55.21
2022-09-20T09:24:33.458Z,54.59
2022-09-20T09:27:29.730Z,53.38
2022-09-20T09:29:56.631Z,53.88
2022-09-20T09:32:31.091Z,53.30
2022-09-20T09:35:26.522Z,53.37
2022-09-20T09:38:02.070Z,53.43
2022-09-20T09:40:32.125Z,52.89
2022-09-20T09:43:02.616Z,51.87
2022-09-20T09:45:38.513Z,51.98
2022-09-20T09:48:26.251Z,51.38
2022-09-20T09:51:23.504Z,51.96
2022-09-20T09:53:51.296Z,51.77
2022-09-20T09:56:57.248Z,52.51
2022-09-20T10:00:18.048Z,52.64
2022-09-20T10:03:17.501Z,52.99
2022-09-20T10:06:01.811Z,53.58
2022-09-20T10:08:53.883Z,53.84
2022-09-20T10:12:01.536Z,54.42
2022-09-20T10:14:54.368Z,55.10
2022-09-20T10:18:08.512Z,55.10
2022-09-20T10:20:59.572Z,55.00
2022-09-20T10:24:03.334Z,55.33
2022-09-20T10:26:57.791Z,55.11
2022-09-20T10:29:59.531Z,54.88
2022-09-20T10:32:31.492Z,55.03
2022-09-20T10:35:26.607Z,54.55
2022-09-20T10:38:19.689Z,54.45
2022-09-20T10:41:28.639Z,53.89
2022-09-20T10:44:41.330Z,52.42
2022-09-20T10:47:20.133Z,52.96
2022-09-20T10:50:28.103Z,52.66
2022-09-20T10:53:16.998Z,52.70
2022-09-20T10:55:57.559Z,52.07
2022-09-20T10:58:52.005Z,52.07
2022-09-20T11:01:42.568Z,52.20
2022-09-20T11:05:11.339Z,51.52
2022-09-20T11:08:01.409Z,47.29
2022-09-20T11:10:39.102Z,47.56
2022-09-20T11:13:32.173Z,47.99
2022-09-20T11:16:19.541Z,46.54
2022-09-20T11:19:03.291Z,46.77
2022-09-20T11:21:51.081Z,46.94
2022-09-20T11:24:31.504Z,45.41
2022-09-20T11:27:06.033Z,46.03
2022-09-20T11:29:54.511Z,46.98
2022-09-20T11:32:31.778Z,47.64
2022-09-20T11:35:29.284Z,48.51
2022-09-20T11:38:23.168Z,48.87
2022-09-20T11:41:19.659Z,49.32
2022-09-20T11:43:47.843Z,49.66
2022-09-20T11:46:24.257Z,49.23
2022-09-20T11:49:02.194Z,50.26
2022-09-20T11:52:20.197Z,50.85
2022-09-20T11:55:11.971Z,50.96
2022-09-20T11:57:39.503Z,50.57
2022-09-20T12:00:08.930Z,50.77
2022-09-20T12:02:52.110Z,50.55
2022-09-20T12:05:37.990Z,50.32
2022-09-20T12:08:37.156Z,49.44
2022-09-20T12:11:10.676Z,49.02
2022-09-20T12:13:40.946Z,49.95
2022-09-20T12:16:35.952Z,49.65
2022-09-20T12:19:12.220Z,49.64
2022-09-20T12:22:04.225Z,47.78
2022-09-20T12:24:36.994Z,47.13
2022-09-20T12:27:27.528Z,47.50
2022-09-20T12:30:20.993Z,47.90
2022-09-20T12:32:55.158Z,48.61
2022-09-20T12:35:38.912Z,47.15
2022-09-20T12:38:34.329Z,45.95
2022-09-20T12:41:14.500Z,45.65
2022-09-20T12:44:07.080Z,45.34
2022-09-20T12:46:49.809Z,45.51
2022-09-20T12:49:55.795Z,45.37
2022-09-20T12:52:50.602Z,45.46
2022-09-20T12:55:31.709Z,45.77
2022-09-20T12:58:14.088Z,46.52
2022-09-20T13:01:14.378Z,46.16
2022-09-20T13:03:46.901Z,46.16
2022-09-20T13:06:19.324Z,46.45
2022-09-20T13:09:01.335Z,46.23
2022-09-20T13:11:53.878Z,47.47
2022-09-20T13:14:32.694Z,47.19
2022-09-20T13:17:27.259Z,48.60
2022-09-20T13:19:56.017Z,48.39
2022-09-20T13:22:37.012Z,48.59
2022-09-20T13:25:07.282Z,49.17
2022-09-20T13:27:40.688Z,49.62
2022-09-20T13:30:24.550Z,49.88
2022-09-20T13:32:51.921Z,50.45
2022-09-20T13:35:23.964Z,49.82
2022-09-20T13:37:56.543Z,49.24
2022-09-20T13:40:40.224Z,49.63
2022-09-20T13:43:28.488Z,49.83
2022-09-20T13:46:11.182Z,49.20
2022-09-20T13:48:38.766Z,49.59
2022-09-20T13:51:23.649Z,49.94
2022-09-20T13:53:50.552Z,49.61
2022-09-20T13:56:28.505Z,49.21
2022-09-20T13:58:58.789Z,49.21
2022-09-20T14:01:33.076Z,49.02
2022-09-20T14:04:14.549Z,49.04
2022-09-20T14:06:42.517Z,49.48
2022-09-20T14:09:38.669Z,49.69
2022-09-20T14:12:06.622Z,49.90
2022-09-20T14:14:35.026Z,50.24
2022-09-20T14:17:06.691Z,50.17
2022-09-20T14:19:40.785Z,50.55
2022-09-20T14:22:21.191Z,50.22
2022-09-20T14:25:25.476Z,50.90
2022-09-20T14:28:18.719Z,51.18
2022-09-20T14:30:47.277Z,51.51
2022-09-20T14:33:20.865Z,51.60
2022-09-20T14:35:52.224Z,51.91
2022-09-20T14:38:24.590Z,51.87
2022-09-20T14:40:52.315Z,51.81
2022-09-20T14:43:34.724Z,52.54
2022-09-20T14:46:16.560Z,52.72
2022-09-20T14:48:45.408Z,52.68
2022-09-20T14:51:18.740Z,52.74
2022-09-20T14:53:50.234Z,52.64
2022-09-20T14:56:30.719Z,52.44
2022-09-20T14:59:06.717Z,52.89
2022-09-20T15:01:36.180Z,53.20
2022-09-20T15:04:09.473Z,52.91
2022-09-20T15:06:40.128Z,52.75
2022-09-20T15:09:07.212Z,53.07
2022-09-20T15:11:34.164Z,52.75
2022-09-20T15:14:01.011Z,52.54
2022-09-20T15:16:29.076Z,52.97
2022-09-20T15:18:56.310Z,53.15
2022-09-20T15:21:23.822Z,52.77
2022-09-20T15:23:50.670Z,52.72
2022-09-20T15:26:20.760Z,52.40
2022-09-20T15:28:47.958Z,52.45
2022-09-20T15:31:16.866Z,52.94
2022-09-20T15:33:43.784Z,53.09
2022-09-20T15:36:11.083Z,52.97
2022-09-20T15:38:37.944Z,52.79
2022-09-20T15:41:04.834Z,52.92
2022-09-20T15:43:32.084Z,53.26
2022-09-20T15:46:06.653Z,53.23
2022-09-20T15:48:33.780Z,53.36
2022-09-20T15:51:08.533Z,53.03
2022-09-20T15:53:44.698Z,53.09
2022-09-20T15:56:33.099Z,52.99
2022-09-20T15:59:07.753Z,53.05
2022-09-20T16:01:41.066Z,53.39
2022-09-20T16:04:10.312Z,53.39
2022-09-20T16:06:39.164Z,53.14
2022-09-20T16:09:07.538Z,53.20
2022-09-20T16:11:34.792Z,53.82
2022-09-20T16:14:02.066Z,53.61
2022-09-20T16:16:35.043Z,54.12
2022-09-20T16:19:18.108Z,53.83
2022-09-20T16:21:58.819Z,53.77
2022-09-20T16:24:29.292Z,53.99
2022-09-20T16:26:57.654Z,54.37
2022-09-20T16:29:25.897Z,54.09
2022-09-20T16:31:54.476Z,54.13
2022-09-20T16:34:33.521Z,54.52
2022-09-20T16:37:05.922Z,54.19
2022-09-20T16:39:33.366Z,54.19
2022-09-20T16:42:06.386Z,54.28
2022-09-20T16:44:35.917Z,54.72
2022-09-20T16:47:08.976Z,54.17
2022-09-20T16:49:36.809Z,54.37
2022-09-20T16:52:09.119Z,54.60
2022-09-20T16:54:36.343Z,54.84
2022-09-20T16:57:03.374Z,54.83
2022-09-20T16:59:30.235Z,55.01
2022-09-20T17:01:57.295Z,55.42
2022-09-20T17:04:24.209Z,55.27
2022-09-20T17:06:51.782Z,55.58
2022-09-20T17:09:18.940Z,55.60
2022-09-20T17:11:50.003Z,55.46
2022-09-20T17:14:19.664Z,54.69
2022-09-20T17:16:48.063Z,55.05
2022-09-20T17:19:20.585Z,54.58
2022-09-20T17:21:50.089Z,54.57
2022-09-20T17:24:21.822Z,54.48
2022-09-20T17:26:50.682Z,54.31
2022-09-20T17:29:18.768Z,54.55
2022-09-20T17:31:53.980Z,54.31
2022-09-20T17:34:22.575Z,54.36
2022-09-20T17:36:50.725Z,54.18
2022-09-20T17:39:18.149Z,53.97
2022-09-20T17:41:47.620Z,54.39
2022-09-20T17:44:15.184Z,54.52
2022-09-20T17:46:53.975Z,54.55
2022-09-20T17:49:23.230Z,54.67
2022-09-20T17:51:52.990Z,54.61
2022-09-20T17:54:20.767Z,54.81
2022-09-20T17:56:53.265Z,55.17
2022-09-20T17:59:20.653Z,55.02
2022-09-20T18:01:51.862Z,55.18
2022-09-20T18:04:21.206Z,54.95
2022-09-20T18:06:53.567Z,55.35
2022-09-20T18:09:24.142Z,55.50
2022-09-20T18:11:53.880Z,55.77
2022-09-20T18:14:24.766Z,55.59
2022-09-20T18:16:53.477Z,55.52
2022-09-20T18:19:22.572Z,55.74
2022-09-20T18:21:49.852Z,55.94
2022-09-20T18:24:16.852Z,55.71
2022-09-20T18:26:44.509Z,55.95
2022-09-20T18:29:17.926Z,55.86
2022-09-20T18:31:50.843Z,55.87
2022-09-20T18:34:23.574Z,56.05
2022-09-20T18:36:53.791Z,55.95
2022-09-20T18:39:29.671Z,56.23
2022-09-20T18:41:57.277Z,56.25
2022-09-20T18:44:26.100Z,56.65
2022-09-20T18:46:55.169Z,56.62
2022-09-20T18:49:22.564Z,56.66
2022-09-20T18:51:49.952Z,56.72
2022-09-20T18:54:17.488Z,56.86
2022-09-20T18:56:47.420Z,57.10
2022-09-20T18:59:25.042Z,56.89
2022-09-20T19:01:55.023Z,57.25
2022-09-20T19:05:05.544Z,57.11
2022-09-20T19:08:23.867Z,57.34
2022-09-20T19:11:04.396Z,57.26
2022-09-20T19:13:57.927Z,57.57
2022-09-20T19:16:34.079Z,57.70
2022-09-20T19:19:35.973Z,57.91
2022-09-20T19:22:29.664Z,57.97
2022-09-20T19:25:40.638Z,58.20
2022-09-20T19:28:11.888Z,58.13
2022-09-20T19:30:41.873Z,58.10
2022-09-20T19:33:19.163Z,58.23
2022-09-20T19:35:50.325Z,58.02
2022-09-20T19:38:59.968Z,57.99
2022-09-20T19:41:54.490Z,58.22
2022-09-20T19:44:39.247Z,58.22
2022-09-20T19:47:25.452Z,57.99
2022-09-20T19:50:04.464Z,58.26
2022-09-20T19:52:31.621Z,58.24
2022-09-20T19:54:58.626Z,58.31
2022-09-20T19:57:47.115Z,58.24
2022-09-20T20:00:20.583Z,58.33
2022-09-20T20:02:48.592Z,58.34
2022-09-20T20:05:21.536Z,58.47
2022-09-20T20:07:50.965Z,58.42
2022-09-20T20:10:45.508Z,58.54
2022-09-20T20:13:56.659Z,58.53
2022-09-20T20:16:38.160Z,58.60
2022-09-20T20:19:19.107Z,58.70
2022-09-20T20:22:29.221Z,58.80
2022-09-20T20:24:56.838Z,58.81
2022-09-20T20:27:25.996Z,58.92
2022-09-20T20:29:52.866Z,58.84
2022-09-20T20:32:19.739Z,59.22
2022-09-20T20:34:46.896Z,59.14
2022-09-20T20:37:13.920Z,59.20
2022-09-20T20:39:40.786Z,59.21
2022-09-20T20:42:10.756Z,59.45
2022-09-20T20:44:37.744Z,59.45
2022-09-20T20:47:06.725Z,59.34
2022-09-20T20:49:33.754Z,59.57
2022-09-20T20:52:04.644Z,59.46
2022-09-20T20:54:32.554Z,59.49
2022-09-20T20:56:59.514Z,59.65
2022-09-20T20:59:26.705Z,59.47
2022-09-20T21:01:53.817Z,59.72
2022-09-20T21:04:21.625Z,59.71
2022-09-20T21:06:50.098Z,59.64
2022-09-20T21:09:17.016Z,59.79
2022-09-20T21:11:44.355Z,59.69
2022-09-20T21:14:12.680Z,59.63
2022-09-20T21:16:43.202Z,59.80
2022-09-20T21:19:15.015Z,59.74
2022-09-20T21:21:44.463Z,59.55
2022-09-20T21:24:15.214Z,59.67
2022-09-20T21:26:42.452Z,59.60
2022-09-20T21:29:14.663Z,59.83
2022-09-20T21:31:44.842Z,59.72
2022-09-20T21:34:13.791Z,59.84
2022-09-20T21:36:50.242Z,60.01
2022-09-20T21:39:17.099Z,59.73
2022-09-20T21:41:46.493Z,59.74
2022-09-20T21:44:14.881Z,59.68
2022-09-20T21:46:42.505Z,59.84
2022-09-20T21:49:12.213Z,59.94
2022-09-20T21:51:45.182Z,59.90
2022-09-20T21:54:12.082Z,59.83
2022-09-20T21:56:40.460Z,59.80
2022-09-20T21:59:07.839Z,59.89
2022-09-20T22:01:37.573Z,60.01
2022-09-20T22:04:12.356Z,60.47
2022-09-20T22:06:44.402Z,60.10
2022-09-20T22:09:14.903Z,59.94
2022-09-20T22:11:45.442Z,60.26
2022-09-20T22:14:14.109Z,60.08
2022-09-20T22:16:43.972Z,60.29
2022-09-20T22:19:13.849Z,60.21
2022-09-20T22:21:46.560Z,60.45
2022-09-20T22:24:14.874Z,60.29
2022-09-20T22:26:45.197Z,60.20
2022-09-20T22:29:12.124Z,60.57
2022-09-20T22:31:44.994Z,60.40
2022-09-20T22:34:19.411Z,60.46
2022-09-20T22:36:46.760Z,60.37
2022-09-20T22:39:14.788Z,60.60
2022-09-20T22:41:42.779Z,60.37
2022-09-20T22:44:10.432Z,60.51
2022-09-20T22:46:38.384Z,60.50
2022-09-20T22:49:06.713Z,60.82
2022-09-20T22:51:33.770Z,60.61
2022-09-20T22:54:08.690Z,60.64
2022-09-20T22:56:36.254Z,60.67
2022-09-20T22:59:12.511Z,60.55
2022-09-20T23:01:46.143Z,60.38
2022-09-20T23:04:19.413Z,60.51
2022-09-20T23:06:49.427Z,60.68
2022-09-20T23:09:17.979Z,60.40
2022-09-20T23:11:45.992Z,60.41
2022-09-20T23:14:18.438Z,60.69
2022-09-20T23:16:46.464Z,60.72
2022-09-20T23:19:14.022Z,60.86
2022-09-20T23:21:43.208Z,61.04
2022-09-20T23:24:12.303Z,61.05
2022-09-20T23:26:41.113Z,61.31
2022-09-20T23:29:11.974Z,61.28
2022-09-20T23:31:44.297Z,61.05
2022-09-20T23:34:13.030Z,61.15
2022-09-20T23:36:41.147Z,61.64
2022-09-20T23:39:09.453Z,61.58
2022-09-20T23:41:36.836Z,61.91
2022-09-20T23:44:06.435Z,61.88
2022-09-20T23:46:33.883Z,61.90
2022-09-20T23:49:00.803Z,61.78
2022-09-20T23:51:28.988Z,62.10
2022-09-20T23:53:56.167Z,62.31
2022-09-20T23:56:23.907Z,62.21
2022-09-20T23:58:51.180Z,62.40
